Canton, Massachusetts
Current Conditions -  °F | °C
As of 12:20 AM on Tuesday 23 Dec 2014 (Local Time) from KOWD Reporting Station
Overcast Overcast  
Wind Chill: 36°   Ceiling: 5000
Heat Index: 36°   Visibility: 8mi
Dew Point: 34°   Wind: 0mph
Humidity: 93%   Direction: NA
Pressure: 30.27"   Gusts: NA
Location:  42.16°N, 71.14°W
Report Text: KOWD 230520Z AUTO 00000KT 8SM FEW027 BKN050 OVC110 02/01 A3027 RMK AO2 T00220011
Loading
Personal Weather Stations






























Interactive Weather Map New forecast layout! Learn more

10-Day Weather Forecast

Advertisements
Track Severe Weather on mobile